sensor_id;sensor_type;location;lat;lon;timestamp;temperature;humidity
7427;DHT22;3755;59.316;18.092;2023-06-14T00:00:18;15.70;93.90
7427;DHT22;3755;59.316;18.092;2023-06-14T00:02:45;15.60;94.00
7427;DHT22;3755;59.316;18.092;2023-06-14T00:05:13;15.70;94.10
7427;DHT22;3755;59.316;18.092;2023-06-14T00:07:41;15.60;94.30
7427;DHT22;3755;59.316;18.092;2023-06-14T00:10:10;15.60;94.50
7427;DHT22;3755;59.316;18.092;2023-06-14T00:12:39;15.60;94.50
7427;DHT22;3755;59.316;18.092;2023-06-14T00:15:07;15.60;94.70
7427;DHT22;3755;59.316;18.092;2023-06-14T00:17:35;15.50;94.70
7427;DHT22;3755;59.316;18.092;2023-06-14T00:20:05;15.50;94.90
7427;DHT22;3755;59.316;18.092;2023-06-14T00:22:33;15.40;95.00
7427;DHT22;3755;59.316;18.092;2023-06-14T00:25:02;15.40;95.30
7427;DHT22;3755;59.316;18.092;2023-06-14T00:27:29;15.30;95.30
7427;DHT22;3755;59.316;18.092;2023-06-14T00:29:58;15.20;95.70
7427;DHT22;3755;59.316;18.092;2023-06-14T00:32:25;15.20;95.80
7427;DHT22;3755;59.316;18.092;2023-06-14T00:34:53;15.20;96.10
7427;DHT22;3755;59.316;18.092;2023-06-14T00:37:21;15.10;96.30
7427;DHT22;3755;59.316;18.092;2023-06-14T00:39:49;15.00;96.60
7427;DHT22;3755;59.316;18.092;2023-06-14T00:42:24;15.10;96.80
7427;DHT22;3755;59.316;18.092;2023-06-14T00:44:51;15.00;96.90
7427;DHT22;3755;59.316;18.092;2023-06-14T00:47:20;14.90;97.10
7427;DHT22;3755;59.316;18.092;2023-06-14T00:49:48;14.90;97.40
7427;DHT22;3755;59.316;18.092;2023-06-14T00:52:16;14.90;97.60
7427;DHT22;3755;59.316;18.092;2023-06-14T00:54:44;14.80;97.70
7427;DHT22;3755;59.316;18.092;2023-06-14T00:57:12;14.80;97.80
7427;DHT22;3755;59.316;18.092;2023-06-14T00:59:43;14.80;97.90
7427;DHT22;3755;59.316;18.092;2023-06-14T01:02:10;14.70;98.10
7427;DHT22;3755;59.316;18.092;2023-06-14T01:04:40;14.70;98.30
7427;DHT22;3755;59.316;18.092;2023-06-14T01:07:15;14.70;98.40
7427;DHT22;3755;59.316;18.092;2023-06-14T01:09:51;14.70;98.70
7427;DHT22;3755;59.316;18.092;2023-06-14T01:12:28;14.70;98.70
7427;DHT22;3755;59.316;18.092;2023-06-14T01:14:59;14.70;98.80
7427;DHT22;3755;59.316;18.092;2023-06-14T01:17:27;14.70;99.00
7427;DHT22;3755;59.316;18.092;2023-06-14T01:19:59;14.80;99.20
7427;DHT22;3755;59.316;18.092;2023-06-14T01:22:30;14.80;99.10
7427;DHT22;3755;59.316;18.092;2023-06-14T01:24:59;14.80;99.10
7427;DHT22;3755;59.316;18.092;2023-06-14T01:27:26;14.80;99.10
7427;DHT22;3755;59.316;18.092;2023-06-14T01:29:55;14.70;99.10
7427;DHT22;3755;59.316;18.092;2023-06-14T01:32:25;14.70;99.30
7427;DHT22;3755;59.316;18.092;2023-06-14T01:34:53;14.70;99.50
7427;DHT22;3755;59.316;18.092;2023-06-14T01:37:21;14.60;99.50
7427;DHT22;3755;59.316;18.092;2023-06-14T01:39:49;14.70;99.70
7427;DHT22;3755;59.316;18.092;2023-06-14T01:42:18;14.70;99.90
7427;DHT22;3755;59.316;18.092;2023-06-14T01:44:46;14.70;99.90
7427;DHT22;3755;59.316;18.092;2023-06-14T01:47:14;14.80;99.90
7427;DHT22;3755;59.316;18.092;2023-06-14T01:49:42;14.90;99.90
7427;DHT22;3755;59.316;18.092;2023-06-14T01:52:09;14.90;99.90
7427;DHT22;3755;59.316;18.092;2023-06-14T01:54:36;14.90;99.90
7427;DHT22;3755;59.316;18.092;2023-06-14T01:57:07;14.90;99.90
7427;DHT22;3755;59.316;18.092;2023-06-14T01:59:37;14.90;99.90
7427;DHT22;3755;59.316;18.092;2023-06-14T02:02:04;14.90;99.90
7427;DHT22;3755;59.316;18.092;2023-06-14T02:04:32;14.90;99.90
7427;DHT22;3755;59.316;18.092;2023-06-14T02:06:59;15.00;99.90
7427;DHT22;3755;59.316;18.092;2023-06-14T02:09:27;15.10;99.90
7427;DHT22;3755;59.316;18.092;2023-06-14T02:11:54;15.10;99.90
7427;DHT22;3755;59.316;18.092;2023-06-14T02:14:21;15.10;99.90
7427;DHT22;3755;59.316;18.092;2023-06-14T02:16:50;15.20;99.90
7427;DHT22;3755;59.316;18.092;2023-06-14T02:19:19;15.30;99.90
7427;DHT22;3755;59.316;18.092;2023-06-14T02:21:47;15.30;99.90
7427;DHT22;3755;59.316;18.092;2023-06-14T02:24:14;15.30;99.90
7427;DHT22;3755;59.316;18.092;2023-06-14T02:26:41;15.30;99.90
7427;DHT22;3755;59.316;18.092;2023-06-14T02:29:09;15.40;99.90
7427;DHT22;3755;59.316;18.092;2023-06-14T02:31:38;15.30;99.90
7427;DHT22;3755;59.316;18.092;2023-06-14T02:34:07;15.30;99.90
7427;DHT22;3755;59.316;18.092;2023-06-14T02:36:35;15.30;99.90
7427;DHT22;3755;59.316;18.092;2023-06-14T02:39:07;15.30;99.90
7427;DHT22;3755;59.316;18.092;2023-06-14T02:41:35;15.40;99.90
7427;DHT22;3755;59.316;18.092;2023-06-14T02:44:02;15.40;99.90
7427;DHT22;3755;59.316;18.092;2023-06-14T02:46:29;15.50;99.90
7427;DHT22;3755;59.316;18.092;2023-06-14T02:48:57;15.60;99.90
7427;DHT22;3755;59.316;18.092;2023-06-14T02:51:25;15.70;99.90
7427;DHT22;3755;59.316;18.092;2023-06-14T02:53:52;15.70;99.90
7427;DHT22;3755;59.316;18.092;2023-06-14T02:56:19;15.70;99.90
7427;DHT22;3755;59.316;18.092;2023-06-14T02:58:48;15.70;99.90
7427;DHT22;3755;59.316;18.092;2023-06-14T03:01:16;15.70;99.90
7427;DHT22;3755;59.316;18.092;2023-06-14T03:03:43;15.70;99.90
7427;DHT22;3755;59.316;18.092;2023-06-14T03:06:11;15.70;99.90
7427;DHT22;3755;59.316;18.092;2023-06-14T03:08:41;15.70;99.90
7427;DHT22;3755;59.316;18.092;2023-06-14T03:11:08;15.70;99.90
7427;DHT22;3755;59.316;18.092;2023-06-14T03:13:35;15.80;99.90
7427;DHT22;3755;59.316;18.092;2023-06-14T03:16:03;15.80;99.90
7427;DHT22;3755;59.316;18.092;2023-06-14T03:18:30;15.80;99.90
7427;DHT22;3755;59.316;18.092;2023-06-14T03:21:01;15.70;99.90
7427;DHT22;3755;59.316;18.092;2023-06-14T03:23:28;15.60;99.90
7427;DHT22;3755;59.316;18.092;2023-06-14T03:25:57;15.70;99.90
7427;DHT22;3755;59.316;18.092;2023-06-14T03:28:24;16.00;99.90
7427;DHT22;3755;59.316;18.092;2023-06-14T03:30:51;16.10;99.90
7427;DHT22;3755;59.316;18.092;2023-06-14T03:33:18;16.20;99.90
7427;DHT22;3755;59.316;18.092;2023-06-14T03:35:46;16.20;99.90
7427;DHT22;3755;59.316;18.092;2023-06-14T03:38:13;16.30;99.90
7427;DHT22;3755;59.316;18.092;2023-06-14T03:40:40;16.60;99.90
7427;DHT22;3755;59.316;18.092;2023-06-14T03:43:09;16.80;98.80
7427;DHT22;3755;59.316;18.092;2023-06-14T03:45:36;16.80;98.60
7427;DHT22;3755;59.316;18.092;2023-06-14T03:48:03;16.80;98.70
7427;DHT22;3755;59.316;18.092;2023-06-14T03:50:32;17.10;98.80
7427;DHT22;3755;59.316;18.092;2023-06-14T03:52:59;17.50;98.00
7427;DHT22;3755;59.316;18.092;2023-06-14T03:55:27;18.20;97.30
7427;DHT22;3755;59.316;18.092;2023-06-14T03:57:56;19.10;95.40
7427;DHT22;3755;59.316;18.092;2023-06-14T04:00:25;20.20;94.00
7427;DHT22;3755;59.316;18.092;2023-06-14T04:02:53;20.90;92.40
7427;DHT22;3755;59.316;18.092;2023-06-14T04:05:20;21.40;92.20
7427;DHT22;3755;59.316;18.092;2023-06-14T04:07:47;21.30;92.10
7427;DHT22;3755;59.316;18.092;2023-06-14T04:10:16;20.90;92.30
7427;DHT22;3755;59.316;18.092;2023-06-14T04:12:43;20.40;93.50
7427;DHT22;3755;59.316;18.092;2023-06-14T04:15:10;19.80;94.60
7427;DHT22;3755;59.316;18.092;2023-06-14T04:17:39;19.90;95.50
7427;DHT22;3755;59.316;18.092;2023-06-14T04:20:07;20.90;94.40
7427;DHT22;3755;59.316;18.092;2023-06-14T04:22:36;21.90;92.90
7427;DHT22;3755;59.316;18.092;2023-06-14T04:25:04;22.60;91.80
7427;DHT22;3755;59.316;18.092;2023-06-14T04:27:32;23.00;91.10
7427;DHT22;3755;59.316;18.092;2023-06-14T04:30:02;23.40;90.50
7427;DHT22;3755;59.316;18.092;2023-06-14T04:32:29;23.70;90.00
7427;DHT22;3755;59.316;18.092;2023-06-14T04:35:00;23.70;88.80
7427;DHT22;3755;59.316;18.092;2023-06-14T04:37:29;24.00;87.70
7427;DHT22;3755;59.316;18.092;2023-06-14T04:39:56;24.10;87.00
7427;DHT22;3755;59.316;18.092;2023-06-14T04:42:24;24.20;86.30
7427;DHT22;3755;59.316;18.092;2023-06-14T04:44:57;24.30;85.50
7427;DHT22;3755;59.316;18.092;2023-06-14T04:47:24;24.40;84.90
7427;DHT22;3755;59.316;18.092;2023-06-14T04:49:56;24.70;84.30
7427;DHT22;3755;59.316;18.092;2023-06-14T04:52:25;25.00;83.80
7427;DHT22;3755;59.316;18.092;2023-06-14T04:54:52;24.90;82.60
7427;DHT22;3755;59.316;18.092;2023-06-14T04:57:20;25.50;82.20
7427;DHT22;3755;59.316;18.092;2023-06-14T04:59:48;25.90;81.40
7427;DHT22;3755;59.316;18.092;2023-06-14T05:02:21;26.10;80.00
7427;DHT22;3755;59.316;18.092;2023-06-14T05:04:49;26.30;79.70
7427;DHT22;3755;59.316;18.092;2023-06-14T05:07:19;26.40;79.20
7427;DHT22;3755;59.316;18.092;2023-06-14T05:09:51;26.40;79.00
7427;DHT22;3755;59.316;18.092;2023-06-14T05:12:18;26.20;78.70
7427;DHT22;3755;59.316;18.092;2023-06-14T05:14:46;25.90;79.00
7427;DHT22;3755;59.316;18.092;2023-06-14T05:17:13;25.90;79.20
7427;DHT22;3755;59.316;18.092;2023-06-14T05:19:42;25.90;79.00
7427;DHT22;3755;59.316;18.092;2023-06-14T05:22:12;25.30;79.00
7427;DHT22;3755;59.316;18.092;2023-06-14T05:24:39;24.70;79.80
7427;DHT22;3755;59.316;18.092;2023-06-14T05:27:09;24.20;80.70
7427;DHT22;3755;59.316;18.092;2023-06-14T05:29:36;23.90;81.00
7427;DHT22;3755;59.316;18.092;2023-06-14T05:32:04;23.60;81.60
7427;DHT22;3755;59.316;18.092;2023-06-14T05:34:31;23.30;82.30
7427;DHT22;3755;59.316;18.092;2023-06-14T05:37:03;23.00;83.30
7427;DHT22;3755;59.316;18.092;2023-06-14T05:39:36;22.70;83.50
7427;DHT22;3755;59.316;18.092;2023-06-14T05:42:08;22.40;84.00
7427;DHT22;3755;59.316;18.092;2023-06-14T05:44:35;22.10;84.60
7427;DHT22;3755;59.316;18.092;2023-06-14T05:47:03;22.00;84.50
7427;DHT22;3755;59.316;18.092;2023-06-14T05:49:30;21.90;84.30
7427;DHT22;3755;59.316;18.092;2023-06-14T05:51:57;21.80;82.90
7427;DHT22;3755;59.316;18.092;2023-06-14T05:54:25;21.80;80.90
7427;DHT22;3755;59.316;18.092;2023-06-14T05:56:52;22.00;79.40
7427;DHT22;3755;59.316;18.092;2023-06-14T05:59:21;22.10;80.40
7427;DHT22;3755;59.316;18.092;2023-06-14T06:01:48;22.10;80.80
7427;DHT22;3755;59.316;18.092;2023-06-14T06:04:16;22.10;79.00
7427;DHT22;3755;59.316;18.092;2023-06-14T06:06:43;22.10;78.80
7427;DHT22;3755;59.316;18.092;2023-06-14T06:09:11;22.20;78.40
7427;DHT22;3755;59.316;18.092;2023-06-14T06:11:38;22.30;79.00
7427;DHT22;3755;59.316;18.092;2023-06-14T06:14:05;22.40;78.00
7427;DHT22;3755;59.316;18.092;2023-06-14T06:16:33;22.40;76.50
7427;DHT22;3755;59.316;18.092;2023-06-14T06:19:01;22.50;77.00
7427;DHT22;3755;59.316;18.092;2023-06-14T06:21:28;22.40;75.90
7427;DHT22;3755;59.316;18.092;2023-06-14T06:23:56;22.40;75.90
7427;DHT22;3755;59.316;18.092;2023-06-14T06:26:23;22.50;76.30
7427;DHT22;3755;59.316;18.092;2023-06-14T06:28:52;22.70;76.10
7427;DHT22;3755;59.316;18.092;2023-06-14T06:31:21;22.80;75.30
7427;DHT22;3755;59.316;18.092;2023-06-14T06:33:51;22.70;75.00
7427;DHT22;3755;59.316;18.092;2023-06-14T06:36:20;22.60;75.90
7427;DHT22;3755;59.316;18.092;2023-06-14T06:38:48;22.50;77.20
7427;DHT22;3755;59.316;18.092;2023-06-14T06:41:15;22.50;78.50
7427;DHT22;3755;59.316;18.092;2023-06-14T06:43:42;22.50;79.50
7427;DHT22;3755;59.316;18.092;2023-06-14T06:46:10;22.50;76.20
7427;DHT22;3755;59.316;18.092;2023-06-14T06:48:38;22.50;79.00
7427;DHT22;3755;59.316;18.092;2023-06-14T06:51:07;22.30;81.60
7427;DHT22;3755;59.316;18.092;2023-06-14T06:53:35;22.10;82.40
7427;DHT22;3755;59.316;18.092;2023-06-14T06:56:02;22.10;82.90
7427;DHT22;3755;59.316;18.092;2023-06-14T06:58:29;22.20;82.20
7427;DHT22;3755;59.316;18.092;2023-06-14T07:00:57;22.30;79.90
7427;DHT22;3755;59.316;18.092;2023-06-14T07:03:24;22.10;78.80
7427;DHT22;3755;59.316;18.092;2023-06-14T07:05:52;22.10;78.90
7427;DHT22;3755;59.316;18.092;2023-06-14T07:08:21;22.30;76.50
7427;DHT22;3755;59.316;18.092;2023-06-14T07:10:48;22.40;75.00
7427;DHT22;3755;59.316;18.092;2023-06-14T07:13:16;22.50;71.20
7427;DHT22;3755;59.316;18.092;2023-06-14T07:15:43;22.80;72.10
7427;DHT22;3755;59.316;18.092;2023-06-14T07:18:11;23.10;73.80
7427;DHT22;3755;59.316;18.092;2023-06-14T07:20:40;23.30;74.40
7427;DHT22;3755;59.316;18.092;2023-06-14T07:23:08;23.40;73.60
7427;DHT22;3755;59.316;18.092;2023-06-14T07:25:37;23.50;75.20
7427;DHT22;3755;59.316;18.092;2023-06-14T07:28:08;23.50;74.30
7427;DHT22;3755;59.316;18.092;2023-06-14T07:30:35;23.40;74.60
7427;DHT22;3755;59.316;18.092;2023-06-14T07:33:03;23.30;73.90
7427;DHT22;3755;59.316;18.092;2023-06-14T07:35:30;23.30;73.60
7427;DHT22;3755;59.316;18.092;2023-06-14T07:37:57;23.30;72.20
7427;DHT22;3755;59.316;18.092;2023-06-14T07:40:25;23.40;72.20
7427;DHT22;3755;59.316;18.092;2023-06-14T07:42:54;23.40;70.30
7427;DHT22;3755;59.316;18.092;2023-06-14T07:45:22;23.40;70.50
7427;DHT22;3755;59.316;18.092;2023-06-14T07:47:49;23.40;67.10
7427;DHT22;3755;59.316;18.092;2023-06-14T07:50:17;23.40;68.00
7427;DHT22;3755;59.316;18.092;2023-06-14T07:52:45;23.50;67.30
7427;DHT22;3755;59.316;18.092;2023-06-14T07:55:14;23.50;65.80
7427;DHT22;3755;59.316;18.092;2023-06-14T07:57:42;23.60;63.80
7427;DHT22;3755;59.316;18.092;2023-06-14T08:00:12;23.70;64.10
7427;DHT22;3755;59.316;18.092;2023-06-14T08:02:41;23.70;63.70
7427;DHT22;3755;59.316;18.092;2023-06-14T08:05:09;23.70;62.00
7427;DHT22;3755;59.316;18.092;2023-06-14T08:07:37;23.70;62.60
7427;DHT22;3755;59.316;18.092;2023-06-14T08:10:05;23.70;62.70
7427;DHT22;3755;59.316;18.092;2023-06-14T08:12:33;23.80;62.60
7427;DHT22;3755;59.316;18.092;2023-06-14T08:15:01;23.90;62.20
7427;DHT22;3755;59.316;18.092;2023-06-14T08:17:29;24.00;60.80
7427;DHT22;3755;59.316;18.092;2023-06-14T08:19:57;24.00;59.70
7427;DHT22;3755;59.316;18.092;2023-06-14T08:22:25;24.10;59.60
7427;DHT22;3755;59.316;18.092;2023-06-14T08:24:53;24.20;59.60
7427;DHT22;3755;59.316;18.092;2023-06-14T08:27:21;24.30;58.40
7427;DHT22;3755;59.316;18.092;2023-06-14T08:29:48;24.30;58.00
7427;DHT22;3755;59.316;18.092;2023-06-14T08:32:15;24.30;58.00
7427;DHT22;3755;59.316;18.092;2023-06-14T08:34:44;24.40;58.20
7427;DHT22;3755;59.316;18.092;2023-06-14T08:37:11;24.30;59.00
7427;DHT22;3755;59.316;18.092;2023-06-14T08:39:39;24.20;59.10
7427;DHT22;3755;59.316;18.092;2023-06-14T08:42:07;24.20;60.10
7427;DHT22;3755;59.316;18.092;2023-06-14T08:44:36;24.20;63.90
7427;DHT22;3755;59.316;18.092;2023-06-14T08:47:06;24.10;66.90
7427;DHT22;3755;59.316;18.092;2023-06-14T08:49:36;24.00;67.90
7427;DHT22;3755;59.316;18.092;2023-06-14T08:52:08;24.10;69.00
7427;DHT22;3755;59.316;18.092;2023-06-14T08:54:38;24.20;68.90
7427;DHT22;3755;59.316;18.092;2023-06-14T08:57:10;24.30;69.50
7427;DHT22;3755;59.316;18.092;2023-06-14T08:59:46;24.40;70.80
7427;DHT22;3755;59.316;18.092;2023-06-14T09:02:15;24.40;71.10
7427;DHT22;3755;59.316;18.092;2023-06-14T09:04:44;24.20;70.50
7427;DHT22;3755;59.316;18.092;2023-06-14T09:07:13;23.90;67.80
7427;DHT22;3755;59.316;18.092;2023-06-14T09:09:41;23.90;69.00
7427;DHT22;3755;59.316;18.092;2023-06-14T09:12:10;24.10;69.20
7427;DHT22;3755;59.316;18.092;2023-06-14T09:14:38;24.40;69.70
7427;DHT22;3755;59.316;18.092;2023-06-14T09:17:07;24.40;69.70
7427;DHT22;3755;59.316;18.092;2023-06-14T09:19:35;24.60;70.40
7427;DHT22;3755;59.316;18.092;2023-06-14T09:22:04;24.80;69.90
7427;DHT22;3755;59.316;18.092;2023-06-14T09:24:32;24.90;70.30
7427;DHT22;3755;59.316;18.092;2023-06-14T09:27:00;24.90;71.20
7427;DHT22;3755;59.316;18.092;2023-06-14T09:29:28;25.00;71.80
7427;DHT22;3755;59.316;18.092;2023-06-14T09:31:57;24.90;71.90
7427;DHT22;3755;59.316;18.092;2023-06-14T09:34:25;25.00;71.60
7427;DHT22;3755;59.316;18.092;2023-06-14T09:36:52;25.00;71.00
7427;DHT22;3755;59.316;18.092;2023-06-14T09:39:19;25.00;71.20
7427;DHT22;3755;59.316;18.092;2023-06-14T09:41:48;25.00;70.20
7427;DHT22;3755;59.316;18.092;2023-06-14T09:44:16;25.00;70.10
7427;DHT22;3755;59.316;18.092;2023-06-14T09:46:44;25.00;69.80
7427;DHT22;3755;59.316;18.092;2023-06-14T09:49:12;25.10;70.00
7427;DHT22;3755;59.316;18.092;2023-06-14T09:51:43;25.20;70.30
7427;DHT22;3755;59.316;18.092;2023-06-14T09:54:15;25.10;70.30
7427;DHT22;3755;59.316;18.092;2023-06-14T09:56:45;25.20;70.10
7427;DHT22;3755;59.316;18.092;2023-06-14T09:59:19;25.20;69.80
7427;DHT22;3755;59.316;18.092;2023-06-14T10:01:48;25.20;70.00
7427;DHT22;3755;59.316;18.092;2023-06-14T10:04:18;25.20;70.30
7427;DHT22;3755;59.316;18.092;2023-06-14T10:06:49;25.30;70.10
7427;DHT22;3755;59.316;18.092;2023-06-14T10:09:17;25.20;70.10
7427;DHT22;3755;59.316;18.092;2023-06-14T10:11:46;25.20;70.00
7427;DHT22;3755;59.316;18.092;2023-06-14T10:14:15;25.20;70.10
7427;DHT22;3755;59.316;18.092;2023-06-14T10:16:54;25.20;70.10
7427;DHT22;3755;59.316;18.092;2023-06-14T10:19:25;25.30;69.90
7427;DHT22;3755;59.316;18.092;2023-06-14T10:22:02;25.20;69.60
7427;DHT22;3755;59.316;18.092;2023-06-14T10:24:35;25.20;70.40
7427;DHT22;3755;59.316;18.092;2023-06-14T10:27:06;25.10;70.00
7427;DHT22;3755;59.316;18.092;2023-06-14T10:30:03;25.00;70.30
7427;DHT22;3755;59.316;18.092;2023-06-14T10:32:32;25.00;70.10
7427;DHT22;3755;59.316;18.092;2023-06-14T10:35:00;25.10;69.40
7427;DHT22;3755;59.316;18.092;2023-06-14T10:37:28;25.10;69.50
7427;DHT22;3755;59.316;18.092;2023-06-14T10:39:55;25.20;69.20
7427;DHT22;3755;59.316;18.092;2023-06-14T10:42:28;25.20;69.00
7427;DHT22;3755;59.316;18.092;2023-06-14T10:44:57;25.30;68.80
7427;DHT22;3755;59.316;18.092;2023-06-14T10:47:27;25.20;68.70
7427;DHT22;3755;59.316;18.092;2023-06-14T10:49:55;25.30;69.00
7427;DHT22;3755;59.316;18.092;2023-06-14T10:52:26;25.40;68.30
7427;DHT22;3755;59.316;18.092;2023-06-14T10:55:09;25.20;67.90
7427;DHT22;3755;59.316;18.092;2023-06-14T10:57:38;25.20;68.60
7427;DHT22;3755;59.316;18.092;2023-06-14T11:00:09;25.40;68.10
7427;DHT22;3755;59.316;18.092;2023-06-14T11:05:51;25.70;67.40
7427;DHT22;3755;59.316;18.092;2023-06-14T11:11:23;25.70;67.00
7427;DHT22;3755;59.316;18.092;2023-06-14T11:13:57;25.60;66.60
7427;DHT22;3755;59.316;18.092;2023-06-14T11:16:31;25.40;66.40
7427;DHT22;3755;59.316;18.092;2023-06-14T11:19:00;25.10;67.00
7427;DHT22;3755;59.316;18.092;2023-06-14T11:21:28;25.20;67.90
7427;DHT22;3755;59.316;18.092;2023-06-14T11:23:58;25.20;67.90
7427;DHT22;3755;59.316;18.092;2023-06-14T11:26:26;25.20;67.10
7427;DHT22;3755;59.316;18.092;2023-06-14T11:28:57;24.90;67.80
7427;DHT22;3755;59.316;18.092;2023-06-14T11:31:25;25.00;68.20
7427;DHT22;3755;59.316;18.092;2023-06-14T11:33:55;25.20;67.70
7427;DHT22;3755;59.316;18.092;2023-06-14T11:36:23;25.30;67.30
7427;DHT22;3755;59.316;18.092;2023-06-14T11:38:58;25.20;67.40
7427;DHT22;3755;59.316;18.092;2023-06-14T11:41:31;25.20;67.50
7427;DHT22;3755;59.316;18.092;2023-06-14T11:44:00;25.40;67.40
7427;DHT22;3755;59.316;18.092;2023-06-14T11:46:28;25.30;67.50
7427;DHT22;3755;59.316;18.092;2023-06-14T11:48:57;25.20;67.30
7427;DHT22;3755;59.316;18.092;2023-06-14T11:51:24;25.20;67.50
7427;DHT22;3755;59.316;18.092;2023-06-14T11:53:51;25.30;68.10
7427;DHT22;3755;59.316;18.092;2023-06-14T11:56:19;25.30;67.80
7427;DHT22;3755;59.316;18.092;2023-06-14T11:58:46;25.10;67.80
7427;DHT22;3755;59.316;18.092;2023-06-14T12:01:16;25.00;67.90
7427;DHT22;3755;59.316;18.092;2023-06-14T12:03:48;24.80;67.70
7427;DHT22;3755;59.316;18.092;2023-06-14T12:06:26;24.90;67.70
7427;DHT22;3755;59.316;18.092;2023-06-14T12:08:57;25.10;67.50
7427;DHT22;3755;59.316;18.092;2023-06-14T12:11:31;25.20;67.50
7427;DHT22;3755;59.316;18.092;2023-06-14T12:13:59;25.20;67.40
7427;DHT22;3755;59.316;18.092;2023-06-14T12:16:31;25.20;67.90
7427;DHT22;3755;59.316;18.092;2023-06-14T12:19:01;25.10;68.40
7427;DHT22;3755;59.316;18.092;2023-06-14T12:21:37;25.20;67.50
7427;DHT22;3755;59.316;18.092;2023-06-14T12:24:06;25.20;66.90
7427;DHT22;3755;59.316;18.092;2023-06-14T12:26:37;25.20;67.10
7427;DHT22;3755;59.316;18.092;2023-06-14T12:29:05;25.20;67.40
7427;DHT22;3755;59.316;18.092;2023-06-14T12:31:32;25.20;67.10
7427;DHT22;3755;59.316;18.092;2023-06-14T12:34:00;25.10;67.70
7427;DHT22;3755;59.316;18.092;2023-06-14T12:36:27;25.10;68.10
7427;DHT22;3755;59.316;18.092;2023-06-14T12:38:56;25.00;68.00
7427;DHT22;3755;59.316;18.092;2023-06-14T12:41:23;25.10;67.90
7427;DHT22;3755;59.316;18.092;2023-06-14T12:43:52;25.20;67.90
7427;DHT22;3755;59.316;18.092;2023-06-14T12:46:19;25.10;68.20
7427;DHT22;3755;59.316;18.092;2023-06-14T12:48:46;25.00;68.40
7427;DHT22;3755;59.316;18.092;2023-06-14T12:51:14;25.00;68.30
7427;DHT22;3755;59.316;18.092;2023-06-14T12:53:41;25.10;69.10
7427;DHT22;3755;59.316;18.092;2023-06-14T12:56:11;25.10;68.90
7427;DHT22;3755;59.316;18.092;2023-06-14T12:58:38;25.20;68.40
7427;DHT22;3755;59.316;18.092;2023-06-14T13:01:05;24.90;68.70
7427;DHT22;3755;59.316;18.092;2023-06-14T13:03:33;24.80;68.20
7427;DHT22;3755;59.316;18.092;2023-06-14T13:06:00;24.80;68.80
7427;DHT22;3755;59.316;18.092;2023-06-14T13:08:30;24.80;68.50
7427;DHT22;3755;59.316;18.092;2023-06-14T13:10:57;24.70;68.30
7427;DHT22;3755;59.316;18.092;2023-06-14T13:13:26;24.80;67.80
7427;DHT22;3755;59.316;18.092;2023-06-14T13:15:54;25.10;68.90
7427;DHT22;3755;59.316;18.092;2023-06-14T13:18:21;25.20;68.30
7427;DHT22;3755;59.316;18.092;2023-06-14T13:20:48;25.20;67.70
7427;DHT22;3755;59.316;18.092;2023-06-14T13:23:16;25.20;67.70
7427;DHT22;3755;59.316;18.092;2023-06-14T13:25:44;25.20;67.60
7427;DHT22;3755;59.316;18.092;2023-06-14T13:28:11;25.30;67.40
7427;DHT22;3755;59.316;18.092;2023-06-14T13:30:40;25.40;67.80
7427;DHT22;3755;59.316;18.092;2023-06-14T13:33:07;25.40;67.20
7427;DHT22;3755;59.316;18.092;2023-06-14T13:35:35;25.40;67.20
7427;DHT22;3755;59.316;18.092;2023-06-14T13:38:02;25.20;65.90
7427;DHT22;3755;59.316;18.092;2023-06-14T13:40:29;25.00;67.40
7427;DHT22;3755;59.316;18.092;2023-06-14T13:42:56;24.90;67.30
7427;DHT22;3755;59.316;18.092;2023-06-14T13:45:24;24.80;67.00
7427;DHT22;3755;59.316;18.092;2023-06-14T13:47:52;24.90;68.10
7427;DHT22;3755;59.316;18.092;2023-06-14T13:50:20;25.00;67.80
7427;DHT22;3755;59.316;18.092;2023-06-14T13:52:48;25.10;67.80
7427;DHT22;3755;59.316;18.092;2023-06-14T13:55:15;25.10;66.80
7427;DHT22;3755;59.316;18.092;2023-06-14T13:57:44;25.00;66.20
7427;DHT22;3755;59.316;18.092;2023-06-14T14:00:13;24.80;67.50
7427;DHT22;3755;59.316;18.092;2023-06-14T14:02:40;24.70;67.20
7427;DHT22;3755;59.316;18.092;2023-06-14T14:05:09;24.60;66.80
7427;DHT22;3755;59.316;18.092;2023-06-14T14:07:36;24.80;67.30
7427;DHT22;3755;59.316;18.092;2023-06-14T14:10:06;24.70;67.60
7427;DHT22;3755;59.316;18.092;2023-06-14T14:12:33;24.70;67.80
7427;DHT22;3755;59.316;18.092;2023-06-14T14:15:00;24.70;68.00
7427;DHT22;3755;59.316;18.092;2023-06-14T14:17:28;24.60;67.80
7427;DHT22;3755;59.316;18.092;2023-06-14T14:19:55;24.60;67.30
7427;DHT22;3755;59.316;18.092;2023-06-14T14:22:24;24.60;67.70
7427;DHT22;3755;59.316;18.092;2023-06-14T14:24:51;24.60;68.20
7427;DHT22;3755;59.316;18.092;2023-06-14T14:27:18;24.80;67.50
7427;DHT22;3755;59.316;18.092;2023-06-14T14:29:45;24.80;67.10
7427;DHT22;3755;59.316;18.092;2023-06-14T14:32:14;24.70;67.80
7427;DHT22;3755;59.316;18.092;2023-06-14T14:34:41;24.60;67.30
7427;DHT22;3755;59.316;18.092;2023-06-14T14:37:08;24.50;68.70
7427;DHT22;3755;59.316;18.092;2023-06-14T14:39:39;24.50;67.90
7427;DHT22;3755;59.316;18.092;2023-06-14T14:42:07;24.60;68.40
7427;DHT22;3755;59.316;18.092;2023-06-14T14:44:34;24.50;68.30
7427;DHT22;3755;59.316;18.092;2023-06-14T14:47:02;24.50;68.30
7427;DHT22;3755;59.316;18.092;2023-06-14T14:49:30;24.50;69.00
7427;DHT22;3755;59.316;18.092;2023-06-14T14:51:58;24.60;68.40
7427;DHT22;3755;59.316;18.092;2023-06-14T14:54:26;24.50;69.30
7427;DHT22;3755;59.316;18.092;2023-06-14T14:56:56;24.60;68.20
7427;DHT22;3755;59.316;18.092;2023-06-14T14:59:23;24.70;67.80
7427;DHT22;3755;59.316;18.092;2023-06-14T15:01:51;24.80;67.90
7427;DHT22;3755;59.316;18.092;2023-06-14T15:04:18;24.80;67.70
7427;DHT22;3755;59.316;18.092;2023-06-14T15:06:45;24.80;68.00
7427;DHT22;3755;59.316;18.092;2023-06-14T15:09:13;24.80;67.70
7427;DHT22;3755;59.316;18.092;2023-06-14T15:11:40;24.80;67.70
7427;DHT22;3755;59.316;18.092;2023-06-14T15:14:10;24.90;67.80
7427;DHT22;3755;59.316;18.092;2023-06-14T15:16:37;24.90;68.10
7427;DHT22;3755;59.316;18.092;2023-06-14T15:19:05;24.70;68.10
7427;DHT22;3755;59.316;18.092;2023-06-14T15:21:32;24.70;68.30
7427;DHT22;3755;59.316;18.092;2023-06-14T15:23:59;24.70;67.50
7427;DHT22;3755;59.316;18.092;2023-06-14T15:26:26;24.70;67.60
7427;DHT22;3755;59.316;18.092;2023-06-14T15:28:54;24.80;67.40
7427;DHT22;3755;59.316;18.092;2023-06-14T15:31:23;24.90;67.30
7427;DHT22;3755;59.316;18.092;2023-06-14T15:33:53;24.80;66.80
7427;DHT22;3755;59.316;18.092;2023-06-14T15:36:20;24.80;66.60
7427;DHT22;3755;59.316;18.092;2023-06-14T15:38:47;24.90;66.70
7427;DHT22;3755;59.316;18.092;2023-06-14T15:41:15;25.00;65.90
7427;DHT22;3755;59.316;18.092;2023-06-14T15:43:44;25.10;66.10
7427;DHT22;3755;59.316;18.092;2023-06-14T15:46:12;25.30;65.60
7427;DHT22;3755;59.316;18.092;2023-06-14T15:48:41;25.50;65.40
7427;DHT22;3755;59.316;18.092;2023-06-14T15:51:08;25.60;65.00
7427;DHT22;3755;59.316;18.092;2023-06-14T15:53:36;25.60;64.80
7427;DHT22;3755;59.316;18.092;2023-06-14T15:56:04;25.70;64.60
7427;DHT22;3755;59.316;18.092;2023-06-14T15:58:31;25.80;64.80